Time;durP1;ratioP1;P1;durP2;ratioP2;P2;SDS_P1;SDS_P2;PMS_P1;PMS_P2;Temp;Humidity;BMP_temperature;BMP_pressure;BME280_temperature;BME280_humidity;BME280_pressure;Samples;Min_cycle;Max_cycle;Signal;HPM_P1;HPM_P2
2023/04/19 00:00:20;;;;;;;5.87;2.43;;;;;;;11.28;99.34;94235.63;5113148;28;20187;-82
2023/04/19 00:02:47;;;;;;;4.47;2.80;;;;;;;11.30;99.44;94231.78;5112995;28;20291;-84
2023/04/19 00:05:14;;;;;;;3.70;2.60;;;;;;;11.26;98.75;94225.44;5109317;28;20717;-83
2023/04/19 00:07:41;;;;;;;4.40;2.13;;;;;;;11.39;98.51;94232.19;5093862;28;20213;-84
2023/04/19 00:10:09;;;;;;;4.00;2.63;;;;;;;11.37;98.63;94226.41;5112837;28;20207;-83
2023/04/19 00:12:37;;;;;;;2.50;1.97;;;;;;;11.37;98.68;94229.81;5104245;28;20184;-84
2023/04/19 00:15:05;;;;;;;3.30;2.20;;;;;;;11.40;97.63;94226.75;5112580;28;20579;-83
2023/04/19 00:17:32;;;;;;;2.50;2.03;;;;;;;11.33;97.98;94226.09;5112778;28;20248;-83
2023/04/19 00:19:58;;;;;;;4.53;2.80;;;;;;;11.22;98.13;94216.53;5103369;28;20184;-84
2023/04/19 00:22:26;;;;;;;10.03;4.70;;;;;;;11.13;98.90;94220.53;5108373;28;20188;-83
2023/04/19 00:24:53;;;;;;;13.30;6.57;;;;;;;10.95;99.50;94215.50;5092698;28;20250;-84
2023/04/19 00:27:20;;;;;;;8.13;5.10;;;;;;;10.96;100.00;94216.28;5091893;28;20220;-85
2023/04/19 00:29:49;;;;;;;5.47;3.63;;;;;;;10.97;100.00;94215.25;5109502;28;20208;-83
2023/04/19 00:32:16;;;;;;;5.20;3.30;;;;;;;10.86;100.00;94203.88;5112574;28;20281;-84
2023/04/19 00:34:43;;;;;;;4.67;3.10;;;;;;;10.74;100.00;94203.09;5112474;28;20188;-84
2023/04/19 00:37:10;;;;;;;5.30;2.77;;;;;;;10.71;100.00;94211.38;5113520;28;20206;-85
2023/04/19 00:39:37;;;;;;;5.03;2.83;;;;;;;10.59;100.00;94210.63;5112702;28;20192;-87
2023/04/19 00:42:04;;;;;;;4.03;2.70;;;;;;;10.58;100.00;94214.22;5112488;28;20670;-83
2023/04/19 00:44:30;;;;;;;3.53;2.60;;;;;;;10.58;100.00;94217.63;5098647;28;20242;-82
2023/04/19 00:47:00;;;;;;;4.57;3.03;;;;;;;10.60;100.00;94209.59;5091882;28;20205;-81
2023/04/19 00:49:28;;;;;;;6.83;3.73;;;;;;;10.62;100.00;94213.53;5091827;28;20279;-81
2023/04/19 00:51:54;;;;;;;4.57;3.13;;;;;;;10.39;100.00;94205.75;5091732;28;20262;-82
2023/04/19 00:54:22;;;;;;;5.50;3.77;;;;;;;10.14;100.00;94167.06;5091894;28;20197;-84
2023/04/19 00:56:48;;;;;;;6.63;3.80;;;;;;;10.37;100.00;94202.59;5091656;28;20246;-82
2023/04/19 00:59:16;;;;;;;6.37;3.20;;;;;;;10.30;100.00;94203.75;5091435;28;20192;-84
2023/04/19 01:01:43;;;;;;;5.43;3.27;;;;;;;10.22;100.00;94197.88;5091863;28;20192;-84
2023/04/19 01:04:11;;;;;;;5.17;3.30;;;;;;;10.24;100.00;94208.06;5092434;28;20611;-84
2023/04/19 01:06:41;;;;;;;5.07;3.60;;;;;;;10.13;100.00;94191.44;5091528;28;20193;-84
2023/04/19 01:09:08;;;;;;;6.57;3.17;;;;;;;10.20;100.00;94202.50;5092007;28;20675;-85
2023/04/19 01:11:35;;;;;;;4.30;3.27;;;;;;;10.12;100.00;94191.66;5091557;28;20200;-83
2023/04/19 01:14:02;;;;;;;5.03;2.93;;;;;;;10.00;100.00;94193.44;5091288;28;20284;-85
2023/04/19 01:16:29;;;;;;;6.10;3.30;;;;;;;9.90;100.00;94188.81;5096653;28;20196;-84
2023/04/19 01:18:56;;;;;;;3.73;3.07;;;;;;;9.68;100.00;94172.22;5111537;28;20240;-83
2023/04/19 01:21:24;;;;;;;6.83;3.30;;;;;;;9.52;100.00;94160.66;5096119;28;20193;-83
2023/04/19 01:23:52;;;;;;;5.43;3.33;;;;;;;9.51;100.00;94179.06;5091627;28;20258;-83
2023/04/19 01:26:21;;;;;;;7.20;3.30;;;;;;;9.68;100.00;94187.78;5070981;28;20198;-83
2023/04/19 01:28:48;;;;;;;4.70;3.20;;;;;;;9.58;100.00;94185.72;5089215;28;20230;-85
2023/04/19 01:31:14;;;;;;;4.93;2.80;;;;;;;9.34;100.00;94180.72;5111327;28;20203;-84
2023/04/19 01:33:41;;;;;;;4.53;3.13;;;;;;;9.34;100.00;94180.72;5111534;28;20200;-84
2023/04/19 01:36:08;;;;;;;3.33;2.73;;;;;;;9.39;100.00;94186.03;5111432;28;20200;-83
2023/04/19 01:38:35;;;;;;;3.53;2.73;;;;;;;9.48;100.00;94188.09;5110800;28;20192;-83
2023/04/19 01:41:03;;;;;;;3.10;2.60;;;;;;;9.46;100.00;94174.56;5102062;28;20207;-84
2023/04/19 01:43:30;;;;;;;3.57;2.97;;;;;;;9.62;100.00;94181.69;5110678;28;20192;-84
2023/04/19 01:45:57;;;;;;;6.40;3.20;;;;;;;9.47;100.00;94167.53;5111511;28;20212;-83
2023/04/19 01:48:24;;;;;;;4.00;2.90;;;;;;;9.44;100.00;94171.38;5111290;28;20411;-83
2023/04/19 01:50:50;;;;;;;3.60;3.07;;;;;;;9.33;100.00;94172.16;5111529;28;20199;-84
2023/04/19 01:53:17;;;;;;;4.73;3.13;;;;;;;9.42;100.00;94183.78;5088228;28;20196;-81
2023/04/19 01:55:44;;;;;;;4.13;3.40;;;;;;;9.41;100.00;94184.00;5090421;28;20575;-80
2023/04/19 01:58:12;;;;;;;4.57;3.33;;;;;;;9.44;100.00;94178.34;5095121;28;20678;-83
2023/04/19 02:00:39;;;;;;;4.97;3.43;;;;;;;9.57;100.00;94186.75;5102368;28;20258;-82
2023/04/19 02:03:06;;;;;;;3.90;3.30;;;;;;;9.55;100.00;94175.03;5096237;28;20659;-83
2023/04/19 02:05:32;;;;;;;5.77;3.70;;;;;;;9.45;100.00;94177.34;5096473;28;20778;-83
2023/04/19 02:08:00;;;;;;;4.13;3.60;;;;;;;9.51;100.00;94181.66;5108775;28;20697;-85
2023/04/19 02:10:27;;;;;;;4.00;3.27;;;;;;;9.55;100.00;94175.03;5094164;28;20442;-85
2023/04/19 02:12:53;;;;;;;5.20;3.80;;;;;;;9.54;100.00;94176.81;5115769;28;20188;-85
2023/04/19 02:15:22;;;;;;;5.53;3.80;;;;;;;9.03;100.00;94133.28;5112158;28;20265;-85
2023/04/19 02:17:49;;;;;;;4.90;3.47;;;;;;;9.27;100.00;94187.78;5114821;28;20244;-83
2023/04/19 02:20:16;;;;;;;6.30;3.73;;;;;;;9.41;100.00;94184.00;5114711;28;20674;-83
2023/04/19 02:22:43;;;;;;;4.63;3.70;;;;;;;9.35;100.00;94182.31;5114869;28;20298;-84
2023/04/19 02:25:10;;;;;;;4.27;3.73;;;;;;;9.23;100.00;94168.53;5114695;28;20224;-84
2023/04/19 02:27:37;;;;;;;5.10;4.30;;;;;;;9.15;100.00;94177.38;5106576;28;20220;-84
2023/04/19 02:30:04;;;;;;;5.60;4.40;;;;;;;9.14;100.00;94178.41;5114959;28;20192;-84
2023/04/19 02:32:32;;;;;;;7.00;4.13;;;;;;;8.96;100.00;94135.19;5114399;28;20203;-84
2023/04/19 02:34:59;;;;;;;8.30;4.40;;;;;;;9.23;100.00;94177.09;5074409;28;20193;-84
2023/04/19 02:37:26;;;;;;;5.13;4.53;;;;;;;9.27;100.00;94170.44;5074239;28;20197;-84
2023/04/19 02:39:53;;;;;;;5.63;4.33;;;;;;;9.28;100.00;94164.25;5074071;28;20254;-83
2023/04/19 02:42:20;;;;;;;6.53;4.67;;;;;;;9.09;100.00;94168.69;5100017;28;20185;-84
2023/04/19 02:44:47;;;;;;;7.20;4.47;;;;;;;9.02;100.00;94169.78;5098709;28;20196;-84
2023/04/19 02:47:14;;;;;;;8.27;4.40;;;;;;;8.98;100.00;94168.66;5114205;28;20280;-84
2023/04/19 02:49:42;;;;;;;4.80;4.30;;;;;;;8.96;100.00;94170.66;5114243;28;20227;-84
2023/04/19 02:52:09;;;;;;;6.40;4.60;;;;;;;8.90;100.00;94171.53;5100724;28;20200;-83
2023/04/19 02:54:35;;;;;;;6.50;4.30;;;;;;;8.83;100.00;94161.25;5096896;28;20187;-82
2023/04/19 02:57:02;;;;;;;5.40;4.40;;;;;;;8.78;100.00;94163.72;5112499;28;20192;-82
2023/04/19 02:59:29;;;;;;;5.27;4.47;;;;;;;8.87;100.00;94166.81;5084711;28;20221;-81
2023/04/19 03:01:56;;;;;;;5.07;4.23;;;;;;;8.81;100.00;94167.66;5099548;28;20661;-83
2023/04/19 03:04:23;;;;;;;6.67;5.07;;;;;;;8.73;100.00;94166.19;5095089;28;20287;-81
2023/04/19 03:06:52;;;;;;;6.50;4.80;;;;;;;8.80;100.00;94163.53;5099668;28;20264;-82
2023/04/19 03:09:18;;;;;;;5.23;4.67;;;;;;;8.76;100.00;94159.78;5100124;28;20721;-83
2023/04/19 03:11:45;;;;;;;7.90;4.90;;;;;;;8.82;100.00;94158.91;5093611;28;20199;-83
2023/04/19 03:14:12;;;;;;;7.20;4.60;;;;;;;8.87;100.00;94165.00;5093402;28;20678;-83
2023/04/19 03:16:39;;;;;;;6.87;5.40;;;;;;;8.94;100.00;94168.31;5102794;28;20261;-82
2023/04/19 03:19:06;;;;;;;6.83;4.77;;;;;;;8.91;100.00;94162.78;5105005;28;20192;-81
2023/04/19 03:21:33;;;;;;;8.17;5.00;;;;;;;8.98;100.00;94166.84;5104725;28;20277;-83
2023/04/19 03:24:02;;;;;;;6.17;5.30;;;;;;;8.82;100.00;94166.69;5095398;28;20215;-81
2023/04/19 03:26:29;;;;;;;6.37;4.83;;;;;;;8.84;100.00;94160.25;5092814;28;20711;-81
2023/04/19 03:28:56;;;;;;;7.13;5.07;;;;;;;8.88;100.00;94160.63;5093164;28;20279;-82
2023/04/19 03:31:22;;;;;;;7.77;5.00;;;;;;;8.87;100.00;94165.00;5102423;28;20250;-83
2023/04/19 03:33:49;;;;;;;7.70;4.60;;;;;;;8.65;100.00;94169.06;5110701;28;20200;-82
2023/04/19 03:36:16;;;;;;;6.40;4.80;;;;;;;8.56;100.00;94165.19;5093336;28;20647;-84
2023/04/19 03:38:43;;;;;;;7.63;4.80;;;;;;;8.35;100.00;94144.91;5104689;28;20558;-83
2023/04/19 03:41:19;;;;;;;7.37;5.13;;;;;;;8.45;100.00;94161.56;5104737;28;20256;-81
2023/04/19 03:43:46;;;;;;;6.53;4.37;;;;;;;8.51;100.00;94172.84;5099130;28;20211;-82
2023/04/19 03:46:13;;;;;;;5.00;4.30;;;;;;;8.62;100.00;94163.53;5107383;28;20189;-82
2023/04/19 03:48:40;;;;;;;6.07;4.47;;;;;;;8.68;100.00;94176.41;5100631;28;20663;-81
2023/04/19 03:51:06;;;;;;;6.90;4.57;;;;;;;8.70;100.00;94163.22;5097202;28;20200;-81
2023/04/19 03:53:33;;;;;;;4.83;4.33;;;;;;;8.73;100.00;94167.97;5103455;28;20199;-81
2023/04/19 03:56:00;;;;;;;6.53;5.00;;;;;;;8.62;100.00;94161.75;5103418;28;20189;-80
2023/04/19 03:58:28;;;;;;;4.87;4.37;;;;;;;8.67;100.00;94169.66;5106976;28;20666;-81
2023/04/19 04:00:55;;;;;;;6.53;4.53;;;;;;;8.54;100.00;94172.41;5109657;28;20207;-81
2023/04/19 04:03:22;;;;;;;7.07;4.70;;;;;;;8.47;100.00;94167.28;5094792;28;20345;-81
2023/04/19 04:05:49;;;;;;;7.17;5.33;;;;;;;8.47;100.00;94166.50;5103810;28;20185;-81
2023/04/19 04:08:15;;;;;;;7.23;4.63;;;;;;;8.48;100.00;94163.69;5103982;28;20215;-90
2023/04/19 04:10:42;;;;;;;8.10;5.30;;;;;;;8.44;100.00;94167.72;5101929;28;20196;-80
2023/04/19 04:13:10;;;;;;;7.57;4.97;;;;;;;8.51;100.00;94171.00;5105737;28;20245;-85
2023/04/19 04:15:38;;;;;;;9.87;5.63;;;;;;;8.26;100.00;94134.03;5105600;28;20188;-87
2023/04/19 04:18:05;;;;;;;6.00;4.50;;;;;;;8.53;100.00;94170.81;5115409;28;20196;-85
2023/04/19 04:20:32;;;;;;;6.83;4.90;;;;;;;8.54;100.00;94172.41;5097147;28;20705;-85
2023/04/19 04:22:59;;;;;;;6.73;5.43;;;;;;;8.39;100.00;94165.00;5092656;28;20192;-84
2023/04/19 04:25:27;;;;;;;5.70;4.73;;;;;;;8.32;100.00;94142.75;5092401;28;20188;-86
2023/04/19 04:27:55;;;;;;;7.70;5.40;;;;;;;8.37;100.00;94148.06;5094274;28;20276;-87
2023/04/19 04:30:22;;;;;;;6.53;5.30;;;;;;;8.24;100.00;94150.78;5113480;28;20225;-87
2023/04/19 04:32:51;;;;;;;12.40;6.37;;;;;;;8.17;100.00;94135.31;5113414;28;20615;-87
2023/04/19 04:35:17;;;;;;;9.23;5.93;;;;;;;8.32;100.00;94158.28;5112082;28;20203;-87
2023/04/19 04:37:45;;;;;;;9.53;6.93;;;;;;;8.36;100.00;94180.97;5115896;28;20195;-89
2023/04/19 04:40:12;;;;;;;8.67;5.90;;;;;;;8.39;100.00;94187.50;5114931;28;20278;-85
2023/04/19 04:42:41;;;;;;;9.03;6.63;;;;;;;8.57;100.00;94186.72;5102728;28;20189;-84
2023/04/19 04:45:10;;;;;;;8.67;6.53;;;;;;;8.41;100.00;94178.50;5091703;28;20193;-83
2023/04/19 04:47:38;;;;;;;7.73;6.20;;;;;;;8.48;100.00;94196.56;5091405;28;20284;-83
2023/04/19 04:50:08;;;;;;;9.77;6.73;;;;;;;8.43;100.00;94196.41;5107566;28;20228;-84
2023/04/19 04:52:35;;;;;;;8.27;6.27;;;;;;;8.37;100.00;94186.91;5112695;28;20207;-83
2023/04/19 04:55:02;;;;;;;7.60;5.87;;;;;;;8.45;100.00;94171.09;5111812;28;20610;-83
2023/04/19 04:57:28;;;;;;;7.40;5.80;;;;;;;8.55;100.00;94189.50;5109652;28;20684;-80
2023/04/19 04:59:55;;;;;;;8.13;5.80;;;;;;;8.57;100.00;94191.91;5110192;28;20195;-80
2023/04/19 05:02:22;;;;;;;7.67;5.60;;;;;;;8.36;100.00;94183.56;5111401;28;20204;-80
2023/04/19 05:04:49;;;;;;;8.63;5.47;;;;;;;8.30;100.00;94191.38;5111018;28;20223;-80
2023/04/19 05:07:17;;;;;;;11.47;5.77;;;;;;;8.32;100.00;94186.78;5091100;28;20196;-79
2023/04/19 05:09:44;;;;;;;7.33;5.37;;;;;;;8.30;100.00;94184.41;5090459;28;20217;-80
2023/04/19 05:12:11;;;;;;;7.73;5.43;;;;;;;8.36;100.00;94195.69;5110332;28;20189;-81
2023/04/19 05:14:38;;;;;;;9.23;5.90;;;;;;;8.45;100.00;94199.59;5071376;28;20197;-81
2023/04/19 05:17:05;;;;;;;11.03;6.40;;;;;;;8.53;100.00;94197.50;5070678;28;20209;-81
2023/04/19 05:19:31;;;;;;;10.30;5.97;;;;;;;8.67;100.00;94195.53;5070966;28;20197;-81
2023/04/19 05:21:58;;;;;;;11.23;6.00;;;;;;;8.67;100.00;94197.34;5083963;28;20256;-82
2023/04/19 05:24:26;;;;;;;9.23;5.77;;;;;;;8.61;100.00;94195.63;5111345;28;20215;-81
2023/04/19 05:26:53;;;;;;;12.27;6.50;;;;;;;8.39;100.00;94180.53;5108401;28;20207;-84
2023/04/19 05:29:20;;;;;;;9.03;6.10;;;;;;;8.42;100.00;94187.88;5107771;28;20690;-84
2023/04/19 05:31:47;;;;;;;12.27;6.30;;;;;;;8.42;100.00;94206.00;5111320;28;20202;-83
2023/04/19 05:34:14;;;;;;;9.37;6.20;;;;;;;8.17;100.00;94175.94;5091317;28;20279;-84
2023/04/19 05:36:40;;;;;;;12.03;6.10;;;;;;;8.40;100.00;94204.59;5090770;28;20682;-83
2023/04/19 05:39:08;;;;;;;8.30;6.40;;;;;;;8.50;100.00;94202.31;5090827;28;20692;-84
2023/04/19 05:41:36;;;;;;;9.30;6.07;;;;;;;8.58;100.00;94202.03;5090953;28;20258;-84
2023/04/19 05:44:03;;;;;;;8.80;6.47;;;;;;;8.52;100.00;94202.88;5095873;28;20192;-83
2023/04/19 05:46:30;;;;;;;10.53;6.60;;;;;;;8.56;100.00;94204.03;5101183;28;20189;-84
2023/04/19 05:48:57;;;;;;;10.07;6.33;;;;;;;8.62;100.00;94205.78;5097362;28;20249;-85
2023/04/19 05:51:23;;;;;;;8.90;5.77;;;;;;;8.75;100.00;94200.44;5094268;28;20197;-84
2023/04/19 05:53:50;;;;;;;7.93;5.30;;;;;;;8.89;100.00;94208.81;5094340;28;20585;-83
2023/04/19 05:56:17;;;;;;;8.40;5.80;;;;;;;8.82;100.00;94202.94;5094488;28;20200;-85
2023/04/19 05:58:45;;;;;;;10.43;7.00;;;;;;;8.82;100.00;94205.53;5102857;28;20196;-84
2023/04/19 06:01:12;;;;;;;7.70;6.00;;;;;;;8.96;100.00;94196.59;5094490;28;20212;-84
2023/04/19 06:03:39;;;;;;;8.57;6.20;;;;;;;8.98;100.00;94203.13;5109114;28;20293;-85
2023/04/19 06:06:06;;;;;;;8.93;5.97;;;;;;;9.04;100.00;94206.63;5099827;28;20576;-83
2023/04/19 06:08:33;;;;;;;10.20;7.70;;;;;;;9.09;100.00;94201.63;5114624;28;20196;-83
2023/04/19 06:11:00;;;;;;;10.40;7.17;;;;;;;9.17;100.00;94206.47;5115227;28;20203;-83
2023/04/19 06:13:27;;;;;;;10.17;6.90;;;;;;;9.16;100.00;94211.88;5108280;28;20193;-83
2023/04/19 06:15:55;;;;;;;10.60;7.20;;;;;;;8.99;100.00;94165.06;5094345;28;20637;-83
2023/04/19 06:18:22;;;;;;;8.97;5.67;;;;;;;9.40;100.00;94205.75;5094252;28;20193;-83
2023/04/19 06:20:50;;;;;;;8.30;5.67;;;;;;;9.50;100.00;94208.59;5094221;28;20185;-84
2023/04/19 06:23:17;;;;;;;6.27;4.83;;;;;;;9.34;100.00;94191.09;5094331;28;20246;-82
2023/04/19 06:25:44;;;;;;;9.77;5.50;;;;;;;9.30;100.00;94215.88;5096845;28;20188;-84
2023/04/19 06:28:11;;;;;;;6.83;5.13;;;;;;;9.33;100.00;94215.44;5098112;28;20204;-85
2023/04/19 06:30:38;;;;;;;7.07;5.30;;;;;;;9.40;100.00;94208.34;5114819;28;20219;-83
2023/04/19 06:33:06;;;;;;;6.80;5.13;;;;;;;9.49;100.00;94209.63;5114306;28;20670;-83
2023/04/19 06:35:33;;;;;;;6.83;5.23;;;;;;;9.57;100.00;94212.69;5114638;28;20196;-85
2023/04/19 06:38:00;;;;;;;7.20;5.37;;;;;;;9.60;100.00;94198.47;5114601;28;20196;-84
2023/04/19 06:40:27;;;;;;;8.47;6.03;;;;;;;9.73;100.00;94220.81;5114097;28;20192;-84
2023/04/19 06:42:54;;;;;;;9.33;6.20;;;;;;;9.65;100.00;94203.78;5114197;28;20199;-84
2023/04/19 06:45:21;;;;;;;8.93;5.93;;;;;;;9.82;100.00;94220.28;5114367;28;20569;-83
2023/04/19 06:47:48;;;;;;;8.10;5.13;;;;;;;9.84;100.00;94220.06;5108553;28;20482;-86
2023/04/19 06:50:16;;;;;;;7.17;5.43;;;;;;;9.89;100.00;94226.19;5096544;28;20594;-85
2023/04/19 06:52:43;;;;;;;7.47;5.17;;;;;;;9.74;100.00;94215.44;5093498;28;20197;-84
2023/04/19 06:55:10;;;;;;;7.30;4.67;;;;;;;9.73;100.00;94224.22;5094165;28;20242;-84
2023/04/19 06:57:37;;;;;;;7.47;5.50;;;;;;;9.80;100.00;94224.91;5113850;28;20227;-83
2023/04/19 07:00:05;;;;;;;6.80;5.20;;;;;;;9.84;100.00;94220.06;5114160;28;20199;-77
2023/04/19 07:02:32;;;;;;;8.83;5.93;;;;;;;9.89;100.00;94230.56;5104790;28;20200;-79
2023/04/19 07:04:59;;;;;;;7.10;5.13;;;;;;;9.75;100.00;94211.03;5104855;28;20235;-82
2023/04/19 07:07:27;;;;;;;7.90;5.40;;;;;;;9.72;100.00;94227.03;5111670;28;20197;-82
2023/04/19 07:09:54;;;;;;;7.60;5.33;;;;;;;9.65;100.00;94229.72;5096609;28;20216;-84
2023/04/19 07:12:21;;;;;;;8.30;6.17;;;;;;;9.69;100.00;94216.09;5114155;28;20200;-83
2023/04/19 07:14:48;;;;;;;6.97;5.10;;;;;;;9.89;100.00;94228.78;5113903;28;20192;-83
2023/04/19 07:17:17;;;;;;;5.77;4.70;;;;;;;9.87;100.00;94233.38;5113324;28;20192;-83
2023/04/19 07:19:47;;;;;;;10.27;6.17;;;;;;;9.93;100.00;94232.47;5113684;28;20203;-84
2023/04/19 07:22:14;;;;;;;7.83;4.83;;;;;;;9.80;100.00;94230.09;5114151;28;20750;-84
2023/04/19 07:24:43;;;;;;;8.33;5.40;;;;;;;9.72;100.00;94214.06;5114073;28;20218;-84
2023/04/19 07:27:10;;;;;;;8.27;5.10;;;;;;;9.69;100.00;94229.09;5114331;28;20283;-84
2023/04/19 07:29:39;;;;;;;6.93;4.80;;;;;;;9.68;100.00;94222.31;5116034;28;20263;-84
2023/04/19 07:32:06;;;;;;;7.70;5.87;;;;;;;9.83;100.00;94234.84;5116517;28;20224;-84
2023/04/19 07:34:33;;;;;;;9.27;5.90;;;;;;;9.95;100.00;94225.28;5119211;28;20203;-84
2023/04/19 07:37:00;;;;;;;6.30;4.97;;;;;;;10.09;100.00;94234.44;5120002;28;20188;-85
2023/04/19 07:39:26;;;;;;;9.03;5.70;;;;;;;10.20;100.00;94231.06;5121298;28;20261;-83
2023/04/19 07:41:55;;;;;;;11.70;5.73;;;;;;;10.14;100.00;94213.00;5100845;28;20215;-82
2023/04/19 07:44:22;;;;;;;7.97;5.30;;;;;;;10.17;100.00;94226.34;5093606;28;20286;-83
2023/04/19 07:46:49;;;;;;;7.80;5.57;;;;;;;10.19;100.00;94224.28;5093904;28;20207;-84
2023/04/19 07:49:16;;;;;;;8.13;5.43;;;;;;;10.28;100.00;94237.72;5093902;28;20683;-83
2023/04/19 07:51:43;;;;;;;10.57;5.87;;;;;;;10.36;100.00;94237.38;5100968;28;20266;-84
2023/04/19 07:54:10;;;;;;;7.83;4.73;;;;;;;10.53;100.00;94235.72;5114183;28;20217;-82
2023/04/19 07:56:37;;;;;;;10.17;5.20;;;;;;;10.54;100.00;94232.06;5113976;28;20289;-82
2023/04/19 07:59:05;;;;;;;8.43;4.90;;;;;;;10.40;100.00;94233.31;5113429;28;20662;-84
2023/04/19 08:01:32;;;;;;;8.27;4.70;;;;;;;10.44;100.00;94236.28;5110553;28;20625;-83
2023/04/19 08:03:59;;;;;;;8.63;4.63;;;;;;;10.49;100.00;94233.78;5114214;28;20253;-83
2023/04/19 08:06:26;;;;;;;5.67;4.47;;;;;;;10.60;100.00;94236.34;5108963;28;20610;-84
2023/04/19 08:08:53;;;;;;;6.53;4.60;;;;;;;10.71;100.00;94235.56;5093161;28;20197;-83
2023/04/19 08:11:20;;;;;;;5.53;4.00;;;;;;;10.75;100.00;94228.88;5097907;28;20212;-82
2023/04/19 08:13:47;;;;;;;5.83;4.20;;;;;;;10.86;100.00;94242.06;5112951;28;20465;-82
2023/04/19 08:16:15;;;;;;;7.33;4.57;;;;;;;11.01;100.00;94235.38;5113029;28;20667;-82
2023/04/19 08:18:45;;;;;;;7.87;4.60;;;;;;;11.09;100.00;94242.81;5112512;28;20196;-82
2023/04/19 08:21:11;;;;;;;7.13;4.50;;;;;;;10.91;100.00;94235.16;5113166;28;20195;-82
2023/04/19 08:23:38;;;;;;;7.50;4.73;;;;;;;10.90;100.00;94225.81;5112832;28;20273;-82
2023/04/19 08:26:05;;;;;;;7.03;4.57;;;;;;;11.04;100.00;94247.13;5112571;28;20191;-82
2023/04/19 08:28:32;;;;;;;8.50;4.73;;;;;;;11.09;100.00;94231.63;5112465;28;20204;-84
2023/04/19 08:30:59;;;;;;;6.17;4.30;;;;;;;11.13;100.00;94223.13;5112437;28;20211;-83
2023/04/19 08:33:28;;;;;;;8.23;4.93;;;;;;;11.00;100.00;94202.59;5112253;28;20249;-83
2023/04/19 08:35:55;;;;;;;7.63;4.37;;;;;;;11.08;100.00;94236.03;5112384;28;20658;-83
2023/04/19 08:38:22;;;;;;;6.13;4.77;;;;;;;11.09;100.00;94232.41;5112417;28;20570;-83
2023/04/19 08:40:53;;;;;;;8.83;4.77;;;;;;;11.19;100.00;94237.81;5100660;28;20201;-83
2023/04/19 08:43:21;;;;;;;6.30;4.53;;;;;;;11.15;100.00;94228.88;5109128;28;20677;-84
2023/04/19 08:45:49;;;;;;;7.83;4.90;;;;;;;11.08;100.00;94207.41;5107220;28;20603;-84
2023/04/19 08:48:16;;;;;;;6.33;4.30;;;;;;;11.17;100.00;94221.63;5098822;28;20923;-81
2023/04/19 08:50:45;;;;;;;5.37;4.10;;;;;;;11.17;100.00;94216.44;5090817;28;20228;-81
2023/04/19 08:53:12;;;;;;;8.90;4.83;;;;;;;11.34;100.00;94227.66;5094526;28;20204;-81
2023/04/19 08:55:42;;;;;;;9.57;4.20;;;;;;;11.39;100.00;94221.78;5106353;28;20214;-81
2023/04/19 08:58:08;;;;;;;4.63;3.40;;;;;;;11.40;100.00;94218.94;5103226;28;21041;-82
2023/04/19 09:00:39;;;;;;;5.17;3.50;;;;;;;11.55;98.45;94220.22;5106872;28;20204;-82
2023/04/19 09:03:07;;;;;;;6.93;4.20;;;;;;;11.64;97.90;94221.44;5091346;28;20276;-81
2023/04/19 09:05:34;;;;;;;6.73;3.70;;;;;;;11.59;98.95;94214.34;5090884;28;20204;-84
2023/04/19 09:08:21;;;;;;;6.13;4.00;;;;;;;11.58;99.14;94207.53;5090601;28;20223;-84
2023/04/19 09:10:56;;;;;;;7.13;4.37;;;;;;;11.78;97.60;94210.50;5092268;28;20259;-83
2023/04/19 09:13:25;;;;;;;11.07;4.37;;;;;;;11.82;95.86;94193.41;5112393;28;20757;-84
2023/04/19 09:15:53;;;;;;;8.33;3.53;;;;;;;11.89;96.29;94220.06;5091325;28;20663;-84
2023/04/19 09:18:20;;;;;;;4.47;3.10;;;;;;;11.98;96.15;94215.25;5089873;28;20196;-84
2023/04/19 09:20:47;;;;;;;6.37;3.63;;;;;;;12.02;95.40;94202.53;5092291;28;20203;-84
2023/04/19 09:23:18;;;;;;;4.97;3.60;;;;;;;12.13;95.03;94194.66;5103609;28;20192;-85
2023/04/19 09:25:53;;;;;;;5.87;4.10;;;;;;;12.19;95.61;94206.72;5095612;28;20192;-85
2023/04/19 09:28:20;;;;;;;6.73;3.97;;;;;;;12.33;94.60;94201.97;5101542;28;20195;-84
2023/04/19 09:30:47;;;;;;;4.37;3.53;;;;;;;12.42;93.62;94205.72;5110533;28;20228;-85
2023/04/19 09:33:19;;;;;;;6.67;3.30;;;;;;;12.54;92.30;94203.81;5105584;28;20653;-85
2023/04/19 09:35:48;;;;;;;8.27;3.77;;;;;;;12.76;91.76;94206.44;5110269;28;20185;-83
2023/04/19 09:38:16;;;;;;;5.53;3.43;;;;;;;12.89;90.86;94212.09;5110393;28;20192;-84
2023/04/19 09:40:46;;;;;;;5.17;3.30;;;;;;;12.92;89.39;94203.00;5109614;28;20232;-85
2023/04/19 09:43:13;;;;;;;4.10;3.07;;;;;;;13.02;88.54;94218.75;5096206;28;20203;-86
2023/04/19 09:45:41;;;;;;;6.57;3.43;;;;;;;13.10;88.66;94204.53;5095207;28;20257;-86
2023/04/19 09:48:12;;;;;;;5.03;3.00;;;;;;;13.17;88.43;94200.69;5094000;28;20801;-85
2023/04/19 09:50:52;;;;;;;4.00;2.90;;;;;;;13.20;89.06;94197.59;5093176;28;20299;-83
2023/04/19 09:53:22;;;;;;;4.33;2.70;;;;;;;13.11;87.58;94180.81;5094728;28;20195;-84
2023/04/19 09:55:49;;;;;;;4.13;3.20;;;;;;;13.42;87.04;94202.81;5097712;28;20207;-85
2023/04/19 09:58:17;;;;;;;6.90;2.70;;;;;;;13.40;84.50;94195.19;5099140;28;20192;-83
2023/04/19 10:00:53;;;;;;;6.50;3.90;;;;;;;13.34;86.02;94185.75;5093496;28;20205;-83
2023/04/19 10:03:24;;;;;;;3.90;3.23;;;;;;;13.50;87.39;94177.03;5092875;28;20219;-83
2023/04/19 10:05:51;;;;;;;5.87;4.03;;;;;;;13.37;87.95;94181.84;5092313;28;20208;-82
2023/04/19 10:08:20;;;;;;;4.60;3.40;;;;;;;13.03;87.44;94110.78;5092093;28;20197;-82
2023/04/19 10:10:53;;;;;;;7.03;3.43;;;;;;;13.56;85.95;94147.31;5091575;28;20224;-83
2023/04/19 10:13:22;;;;;;;8.90;3.53;;;;;;;14.07;84.70;94158.16;5093350;28;20197;-83
2023/04/19 10:15:49;;;;;;;5.00;3.40;;;;;;;14.54;82.57;94179.91;5092167;28;20200;-83
2023/04/19 10:18:16;;;;;;;5.13;2.73;;;;;;;14.78;81.09;94188.91;5092741;28;20189;-83
2023/04/19 10:20:50;;;;;;;7.20;3.43;;;;;;;15.09;81.16;94184.56;5093142;28;20201;-83
2023/04/19 10:23:28;;;;;;;3.83;3.17;;;;;;;15.53;78.86;94187.59;5097785;28;20202;-83
2023/04/19 10:25:58;;;;;;;4.43;2.90;;;;;;;15.69;77.39;94170.88;5095618;28;20227;-83
2023/04/19 10:28:28;;;;;;;4.80;3.10;;;;;;;15.83;76.35;94185.03;5092660;28;20247;-82
2023/04/19 10:30:57;;;;;;;3.40;2.90;;;;;;;15.71;76.46;94184.50;5099158;28;20221;-82
2023/04/19 10:33:26;;;;;;;6.37;2.77;;;;;;;15.75;75.18;94171.66;5092173;28;20211;-82
2023/04/19 10:35:57;;;;;;;2.93;2.57;;;;;;;15.47;76.31;94172.16;5092153;28;20295;-83
2023/04/19 10:38:37;;;;;;;3.93;3.43;;;;;;;15.44;77.55;94175.25;5093324;28;20283;-83
2023/04/19 10:41:10;;;;;;;3.97;3.13;;;;;;;15.56;77.09;94150.41;5099487;28;20319;-81
2023/04/19 10:43:38;;;;;;;3.87;3.47;;;;;;;16.03;75.23;94168.50;5094173;28;20220;-82
2023/04/19 10:46:08;;;;;;;4.03;3.60;;;;;;;16.18;73.25;94181.63;5098737;28;20597;-82
2023/04/19 10:48:42;;;;;;;4.87;3.33;;;;;;;16.21;74.02;94151.44;5091120;28;20207;-81
2023/04/19 10:51:14;;;;;;;7.17;4.00;;;;;;;15.86;75.19;94154.88;5088525;28;20243;-82
2023/04/19 10:53:49;;;;;;;4.63;3.90;;;;;;;15.93;74.98;94163.25;5088199;28;20285;-83
2023/04/19 10:56:19;;;;;;;4.50;3.10;;;;;;;15.51;74.47;94147.00;5092371;28;20656;-82
2023/04/19 10:59:20;;;;;;;4.07;3.63;;;;;;;15.67;75.03;94156.47;5092056;28;20214;-82
2023/04/19 11:01:49;;;;;;;7.30;3.70;;;;;;;15.96;72.74;94147.00;5096362;28;20188;-82
2023/04/19 11:04:18;;;;;;;4.07;3.43;;;;;;;16.07;72.68;94153.03;5095092;28;21076;-82
2023/04/19 11:07:02;;;;;;;4.47;3.67;;;;;;;16.13;71.92;94149.38;5095165;28;20542;-82
2023/04/19 11:09:33;;;;;;;7.23;4.00;;;;;;;16.11;73.39;94141.75;5091708;28;20228;-83
2023/04/19 11:12:03;;;;;;;5.70;3.20;;;;;;;16.42;73.22;94143.25;5089682;28;20246;-82
2023/04/19 11:14:56;;;;;;;5.27;3.33;;;;;;;16.88;71.86;94143.16;5090988;28;20589;-83
2023/04/19 11:17:26;;;;;;;5.47;3.30;;;;;;;17.14;68.55;94131.50;5081696;28;20764;-81
2023/04/19 11:19:55;;;;;;;7.70;3.50;;;;;;;17.09;68.27;94138.59;5093208;28;20200;-83
2023/04/19 11:22:26;;;;;;;2.87;2.50;;;;;;;16.79;66.82;94153.44;5095351;28;20200;-82
2023/04/19 11:24:53;;;;;;;3.50;2.87;;;;;;;16.88;67.86;94151.03;5093308;28;20285;-81
2023/04/19 11:27:21;;;;;;;3.47;3.03;;;;;;;17.27;68.50;94136.13;5091806;28;20212;-82
2023/04/19 11:29:48;;;;;;;3.83;3.23;;;;;;;17.54;68.17;94143.63;5092406;28;20573;-82
2023/04/19 11:32:15;;;;;;;5.23;3.07;;;;;;;17.48;65.10;94121.03;5095339;28;20603;-82
2023/04/19 11:34:42;;;;;;;2.93;2.50;;;;;;;17.45;65.17;94145.22;5087631;28;20284;-86